TimeEEST,TemperatureF,Dew PointF,Humidity,Sea Level PressureIn,VisibilityMPH,Wind Direction,Wind SpeedMPH,Gust SpeedMPH,PrecipitationIn,Events,Conditions,WindDirDegrees,DateUTC
4:50 AM,64.4,55.4,73,29.89,-9999.0,Calm,Calm,-,N/A,,Clear,0,2013-08-23 01:50:00
5:20 AM,64.4,55.4,73,29.89,-9999.0,Calm,Calm,-,N/A,,Clear,0,2013-08-23 02:20:00
5:50 AM,64.4,55.4,73,29.89,-9999.0,Calm,Calm,-,N/A,,Clear,0,2013-08-23 02:50:00
6:20 AM,64.4,55.4,73,29.92,6.2,Calm,Calm,-,N/A,,Partly Cloudy,0,2013-08-23 03:20:00
6:50 AM,62.6,55.4,77,29.92,6.2,Calm,Calm,-,N/A,,Partly Cloudy,0,2013-08-23 03:50:00
7:20 AM,62.6,55.4,77,29.92,6.2,Calm,Calm,-,N/A,,Partly Cloudy,0,2013-08-23 04:20:00
7:50 AM,66.2,59.0,78,29.92,-9999.0,Calm,Calm,-,N/A,,Clear,0,2013-08-23 04:50:00
8:20 AM,66.2,59.0,78,29.92,-9999.0,Calm,Calm,-,N/A,,Clear,0,2013-08-23 05:20:00
8:50 AM,73.4,59.0,61,29.92,-9999.0,Calm,Calm,-,N/A,,Clear,0,2013-08-23 05:50:00
9:20 AM,73.4,59.0,61,29.92,-9999.0,Calm,Calm,-,N/A,,Clear,0,2013-08-23 06:20:00
9:50 AM,78.8,57.2,47,29.92,-9999.0,SSE,4.6,-,N/A,,Clear,150,2013-08-23 06:50:00
10:20 AM,78.8,57.2,47,29.92,-9999.0,South,4.6,-,N/A,,Clear,170,2013-08-23 07:20:00
10:50 AM,78.8,57.2,47,29.92,-9999.0,South,4.6,-,N/A,,Clear,190,2013-08-23 07:50:00
11:20 AM,82.4,55.4,39,29.92,6.2,SSW,5.8,-,N/A,,Partly Cloudy,210,2013-08-23 08:20:00
11:50 AM,82.4,55.4,39,29.92,6.2,SSW,4.6,-,N/A,,Partly Cloudy,210,2013-08-23 08:50:00
12:20 PM,82.4,55.4,39,29.92,6.2,South,6.9,-,N/A,,Partly Cloudy,180,2013-08-23 09:20:00
12:50 PM,86.0,55.4,35,29.92,6.2,South,9.2,-,N/A,,Partly Cloudy,170,2013-08-23 09:50:00
1:20 PM,86.0,55.4,35,29.92,6.2,South,9.2,-,N/A,,Partly Cloudy,170,2013-08-23 10:20:00
2:20 PM,86.0,53.6,33,29.92,6.2,South,8.1,-,N/A,,Partly Cloudy,170,2013-08-23 11:20:00
2:50 PM,87.8,53.6,31,29.89,6.2,SSW,8.1,-,N/A,,Partly Cloudy,200,2013-08-23 11:50:00
3:20 PM,87.8,53.6,31,29.89,6.2,SSW,6.9,-,N/A,,Partly Cloudy,200,2013-08-23 12:20:00
3:50 PM,87.8,53.6,31,29.89,6.2,SW,11.5,-,N/A,,Partly Cloudy,220,2013-08-23 12:50:00
4:20 PM,87.8,53.6,31,29.89,6.2,SW,12.7,-,N/A,,Partly Cloudy,220,2013-08-23 13:20:00
5:20 PM,84.2,57.2,40,29.89,6.2,WSW,11.5,-,N/A,,Partly Cloudy,240,2013-08-23 14:20:00
5:50 PM,84.2,59.0,42,29.89,6.2,WSW,9.2,-,N/A,,Partly Cloudy,240,2013-08-23 14:50:00
6:20 PM,84.2,59.0,42,29.86,6.2,WSW,9.2,-,N/A,,Partly Cloudy,240,2013-08-23 15:20:00
6:50 PM,82.4,59.0,45,29.86,6.2,WSW,8.1,-,N/A,,Partly Cloudy,240,2013-08-23 15:50:00
7:20 PM,80.6,64.4,58,29.86,6.2,West,6.9,-,N/A,,Partly Cloudy,260,2013-08-23 16:20:00
7:50 PM,80.6,64.4,58,29.86,6.2,West,5.8,-,N/A,,Partly Cloudy,260,2013-08-23 16:50:00
8:20 PM,80.6,64.4,58,29.89,6.2,WSW,6.9,-,N/A,,Partly Cloudy,250,2013-08-23 17:20:00
8:50 PM,77.0,64.4,65,29.89,6.2,West,5.8,-,N/A,,Partly Cloudy,260,2013-08-23 17:50:00